createdAt,value
2022-08-22T00:00:22.293Z,100.00
2022-08-22T00:02:54.938Z,100.00
2022-08-22T00:03:11.562Z,100.00
2022-08-22T00:03:47.460Z,100.00
2022-08-22T00:07:01.399Z,100.00
2022-08-22T00:10:28.544Z,100.00
2022-08-22T00:13:42.570Z,100.00
2022-08-22T00:16:58.869Z,100.00
2022-08-22T00:20:13.485Z,100.00
2022-08-22T00:23:32.800Z,100.00
2022-08-22T00:26:45.490Z,100.00
2022-08-22T00:29:51.294Z,100.00
2022-08-22T00:33:01.817Z,100.00
2022-08-22T00:36:13.749Z,100.00
2022-08-22T00:39:22.822Z,100.00
2022-08-22T00:42:32.051Z,100.00
2022-08-22T00:45:56.037Z,100.00
2022-08-22T00:49:08.005Z,100.00
2022-08-22T00:52:20.036Z,100.00
2022-08-22T00:55:40.629Z,100.00
2022-08-22T00:59:23.718Z,100.00
2022-08-22T01:03:03.990Z,100.00
2022-08-22T01:06:20.965Z,100.00
2022-08-22T01:09:37.666Z,100.00
2022-08-22T01:12:52.184Z,100.00
2022-08-22T01:16:06.350Z,100.00
2022-08-22T01:19:45.753Z,100.00
2022-08-22T01:23:18.682Z,100.00
2022-08-22T01:26:39.134Z,100.00
2022-08-22T01:29:52.632Z,100.00
2022-08-22T01:33:32.362Z,100.00
2022-08-22T01:37:11.491Z,100.00
2022-08-22T01:40:19.338Z,100.00
2022-08-22T01:43:51.504Z,100.00
2022-08-22T01:46:57.151Z,100.00
2022-08-22T01:50:23.491Z,100.00
2022-08-22T01:53:39.979Z,100.00
2022-08-22T01:56:46.948Z,100.00
2022-08-22T01:59:52.834Z,100.00
2022-08-22T02:03:12.063Z,100.00
2022-08-22T02:06:17.677Z,100.00
2022-08-22T02:09:39.009Z,100.00
2022-08-22T02:12:40.625Z,100.00
2022-08-22T02:16:04.988Z,100.00
2022-08-22T02:19:16.047Z,100.00
2022-08-22T02:22:32.144Z,100.00
2022-08-22T02:26:03.934Z,100.00
2022-08-22T02:29:17.818Z,100.00
2022-08-22T02:32:33.171Z,100.00
2022-08-22T02:35:47.341Z,100.00
2022-08-22T02:38:55.145Z,100.00
2022-08-22T02:42:07.254Z,100.00
2022-08-22T02:45:17.798Z,100.00
2022-08-22T02:48:19.509Z,100.00
2022-08-22T02:51:32.179Z,100.00
2022-08-22T02:54:49.150Z,100.00
2022-08-22T02:58:11.794Z,100.00
2022-08-22T03:01:22.289Z,100.00
2022-08-22T03:04:30.117Z,100.00
2022-08-22T03:07:40.445Z,100.00
2022-08-22T03:11:23.099Z,100.00
2022-08-22T03:14:31.967Z,100.00
2022-08-22T03:17:40.481Z,100.00
2022-08-22T03:20:44.590Z,100.00
2022-08-22T03:23:51.001Z,100.00
2022-08-22T03:27:02.990Z,100.00
2022-08-22T03:30:17.861Z,100.00
2022-08-22T03:33:30.401Z,100.00
2022-08-22T03:36:32.791Z,100.00
2022-08-22T03:39:48.595Z,100.00
2022-08-22T03:43:18.704Z,100.00
2022-08-22T03:46:24.054Z,100.00
2022-08-22T03:49:49.346Z,100.00
2022-08-22T03:53:18.845Z,100.00
2022-08-22T03:56:41.665Z,100.00
2022-08-22T04:00:28.873Z,100.00
2022-08-22T04:04:07.139Z,100.00
2022-08-22T04:07:40.049Z,100.00
2022-08-22T04:11:18.992Z,100.00
2022-08-22T04:14:38.529Z,100.00
2022-08-22T04:17:57.123Z,100.00
2022-08-22T04:21:37.355Z,100.00
2022-08-22T04:25:07.978Z,100.00
2022-08-22T04:28:12.896Z,100.00
2022-08-22T04:31:19.295Z,100.00
2022-08-22T04:34:35.349Z,100.00
2022-08-22T04:38:05.135Z,100.00
2022-08-22T04:41:14.231Z,100.00
2022-08-22T04:44:40.432Z,100.00
2022-08-22T04:47:53.964Z,100.00
2022-08-22T04:51:06.397Z,100.00
2022-08-22T04:54:24.792Z,100.00
2022-08-22T04:57:34.174Z,100.00
2022-08-22T05:00:52.405Z,100.00
2022-08-22T05:04:01.324Z,100.00
2022-08-22T05:07:14.821Z,100.00
2022-08-22T05:10:22.340Z,100.00
2022-08-22T05:13:29.286Z,100.00
2022-08-22T05:16:41.367Z,100.00
2022-08-22T05:19:50.706Z,100.00
2022-08-22T05:22:57.008Z,100.00
2022-08-22T05:26:01.549Z,100.00
2022-08-22T05:29:08.445Z,100.00
2022-08-22T05:32:19.930Z,100.00
2022-08-22T05:35:38.576Z,100.00
2022-08-22T05:38:48.888Z,100.00
2022-08-22T05:41:59.291Z,100.00
2022-08-22T05:45:03.252Z,100.00
2022-08-22T05:48:39.703Z,100.00
2022-08-22T05:52:16.642Z,100.00
2022-08-22T05:55:43.447Z,100.00
2022-08-22T05:58:52.781Z,100.00
2022-08-22T06:02:05.422Z,100.00
2022-08-22T06:05:11.855Z,100.00
2022-08-22T06:08:36.873Z,100.00
2022-08-22T06:11:51.675Z,100.00
2022-08-22T06:14:59.605Z,100.00
2022-08-22T06:18:06.618Z,100.00
2022-08-22T06:21:13.301Z,100.00
2022-08-22T06:24:22.488Z,100.00
2022-08-22T06:27:27.361Z,100.00
2022-08-22T06:30:34.392Z,100.00
2022-08-22T06:33:42.332Z,100.00
2022-08-22T06:36:50.036Z,100.00
2022-08-22T06:39:54.188Z,100.00
2022-08-22T06:42:57.337Z,100.00
2022-08-22T06:46:00.250Z,100.00
2022-08-22T06:49:03.521Z,100.00
2022-08-22T06:52:14.007Z,100.00
2022-08-22T06:55:16.193Z,100.00
2022-08-22T06:58:23.295Z,100.00
2022-08-22T07:01:41.055Z,100.00
2022-08-22T07:04:43.129Z,100.00
2022-08-22T07:07:45.634Z,100.00
2022-08-22T07:11:28.199Z,100.00
2022-08-22T07:14:40.574Z,100.00
2022-08-22T07:17:51.514Z,100.00
2022-08-22T07:20:55.327Z,100.00
2022-08-22T07:24:01.107Z,100.00
2022-08-22T07:27:14.123Z,100.00
2022-08-22T07:30:27.272Z,100.00
2022-08-22T07:33:48.660Z,100.00
2022-08-22T07:36:59.172Z,100.00
2022-08-22T07:40:14.048Z,100.00
2022-08-22T07:43:30.805Z,100.00
2022-08-22T07:46:38.526Z,100.00
2022-08-22T07:49:56.899Z,100.00
2022-08-22T07:53:06.081Z,100.00
2022-08-22T07:56:15.590Z,100.00
2022-08-22T07:59:20.273Z,100.00
2022-08-22T08:02:22.218Z,100.00
2022-08-22T08:05:27.596Z,100.00
2022-08-22T08:08:34.769Z,100.00
2022-08-22T08:11:42.471Z,100.00
2022-08-22T08:14:46.242Z,100.00
2022-08-22T08:17:52.981Z,100.00
2022-08-22T08:21:00.149Z,100.00
2022-08-22T08:24:02.493Z,100.00
2022-08-22T08:27:26.447Z,100.00
2022-08-22T08:30:46.769Z,100.00
2022-08-22T08:33:50.470Z,100.00
2022-08-22T08:36:54.398Z,100.00
2022-08-22T08:39:58.452Z,100.00
2022-08-22T08:43:29.879Z,100.00
2022-08-22T08:46:55.906Z,100.00
2022-08-22T08:50:24.293Z,100.00
2022-08-22T08:53:41.177Z,100.00
2022-08-22T08:56:59.814Z,100.00
2022-08-22T09:00:14.771Z,100.00
2022-08-22T09:03:43.870Z,100.00
2022-08-22T09:07:01.095Z,99.90
2022-08-22T09:10:31.095Z,99.90
2022-08-22T09:13:51.335Z,99.74
2022-08-22T09:16:56.148Z,99.82
2022-08-22T09:20:17.781Z,99.91
2022-08-22T09:23:36.261Z,99.93
2022-08-22T09:26:44.457Z,99.90
2022-08-22T09:29:59.859Z,100.00
2022-08-22T09:33:12.063Z,100.00
2022-08-22T09:36:35.958Z,100.00
2022-08-22T09:40:04.969Z,100.00
2022-08-22T09:43:21.006Z,100.00
2022-08-22T09:46:36.553Z,100.00
2022-08-22T09:50:01.163Z,99.99
2022-08-22T09:53:21.954Z,100.00
2022-08-22T09:56:29.272Z,100.00
2022-08-22T09:59:36.138Z,100.00
2022-08-22T10:02:55.841Z,100.00
2022-08-22T10:06:05.488Z,100.00
2022-08-22T10:09:12.124Z,100.00
2022-08-22T10:12:25.133Z,99.97
2022-08-22T10:15:40.238Z,99.92
2022-08-22T10:18:52.744Z,99.91
2022-08-22T10:22:24.356Z,99.90
2022-08-22T10:25:41.860Z,99.91
2022-08-22T10:28:54.248Z,99.97
2022-08-22T10:32:14.517Z,100.00
2022-08-22T10:35:33.992Z,100.00
2022-08-22T10:38:54.728Z,100.00
2022-08-22T10:42:24.257Z,100.00
2022-08-22T10:45:37.013Z,100.00
2022-08-22T10:48:57.516Z,100.00
2022-08-22T10:52:13.657Z,100.00
2022-08-22T10:55:27.588Z,100.00
2022-08-22T10:58:32.916Z,100.00
2022-08-22T11:01:42.424Z,100.00
2022-08-22T11:05:22.064Z,100.00
2022-08-22T11:08:30.002Z,100.00
2022-08-22T11:11:47.778Z,100.00
2022-08-22T11:15:04.566Z,100.00
2022-08-22T11:18:20.594Z,100.00
2022-08-22T11:21:41.161Z,100.00
2022-08-22T11:25:11.242Z,100.00
2022-08-22T11:28:13.437Z,100.00
2022-08-22T11:31:28.164Z,99.62
2022-08-22T11:34:51.391Z,98.55
2022-08-22T11:38:01.326Z,97.68
2022-08-22T11:41:24.373Z,96.72
2022-08-22T11:44:50.461Z,97.11
2022-08-22T11:48:02.654Z,95.61
2022-08-22T11:51:13.016Z,94.29
2022-08-22T11:54:28.710Z,93.44
2022-08-22T11:57:44.862Z,91.93
2022-08-22T12:01:17.026Z,90.83
2022-08-22T12:04:36.033Z,91.14
2022-08-22T12:07:53.467Z,91.12
2022-08-22T12:11:02.314Z,91.01
2022-08-22T12:14:19.248Z,90.04
2022-08-22T12:18:01.266Z,89.29
2022-08-22T12:21:12.578Z,90.15
2022-08-22T12:24:26.726Z,90.49
2022-08-22T12:27:31.566Z,89.37
2022-08-22T12:30:54.792Z,89.38
2022-08-22T12:34:20.670Z,88.96
2022-08-22T12:37:30.135Z,89.38
2022-08-22T12:41:34.565Z,88.18
2022-08-22T12:45:08.433Z,88.68
2022-08-22T12:48:16.571Z,87.74
2022-08-22T12:51:45.315Z,87.98
2022-08-22T12:55:12.177Z,87.30
2022-08-22T12:58:37.407Z,86.81
2022-08-22T13:01:43.913Z,86.97
2022-08-22T13:04:54.057Z,86.74
2022-08-22T13:08:04.368Z,86.06
2022-08-22T13:11:15.089Z,85.13
2022-08-22T13:14:26.947Z,83.87
2022-08-22T13:17:29.540Z,83.30
2022-08-22T13:20:35.929Z,83.04
2022-08-22T13:23:43.968Z,82.34
2022-08-22T13:26:53.768Z,81.98
2022-08-22T13:30:04.764Z,82.09
2022-08-22T13:33:24.008Z,80.66
2022-08-22T13:36:27.262Z,80.16
2022-08-22T13:39:37.876Z,81.46
2022-08-22T13:42:49.293Z,81.83
2022-08-22T13:46:02.844Z,81.03
2022-08-22T13:49:07.440Z,80.98
2022-08-22T13:52:32.325Z,81.02
2022-08-22T13:55:45.257Z,79.88
2022-08-22T13:58:56.210Z,80.40
2022-08-22T14:02:15.305Z,80.94
2022-08-22T14:05:31.392Z,81.10
2022-08-22T14:08:37.041Z,81.29
2022-08-22T14:11:43.885Z,81.86
2022-08-22T14:14:48.979Z,81.87
2022-08-22T14:17:59.779Z,81.39
2022-08-22T14:21:33.542Z,82.19
2022-08-22T14:24:46.639Z,82.22
2022-08-22T14:28:06.448Z,82.39
2022-08-22T14:31:13.815Z,82.61
2022-08-22T14:34:16.357Z,82.51
2022-08-22T14:37:24.463Z,82.40
2022-08-22T14:40:34.086Z,82.14
2022-08-22T14:43:46.422Z,82.57
2022-08-22T14:46:51.781Z,82.86
2022-08-22T14:49:57.632Z,83.04
2022-08-22T14:53:22.054Z,83.27
2022-08-22T14:56:28.304Z,83.87
2022-08-22T14:59:36.977Z,83.94
2022-08-22T15:02:39.198Z,83.64
2022-08-22T15:05:47.785Z,83.84
2022-08-22T15:08:50.915Z,83.75
2022-08-22T15:11:53.165Z,83.77
2022-08-22T15:14:59.693Z,83.19
2022-08-22T15:18:02.539Z,82.99
2022-08-22T15:21:32.815Z,83.65
2022-08-22T15:24:40.718Z,83.27
2022-08-22T15:27:57.142Z,82.97
2022-08-22T15:31:06.387Z,82.07
2022-08-22T15:34:18.127Z,82.43
2022-08-22T15:37:20.019Z,82.93
2022-08-22T15:40:34.415Z,83.21
2022-08-22T15:43:45.588Z,83.26
2022-08-22T15:47:23.952Z,83.39
2022-08-22T15:50:55.886Z,83.76
2022-08-22T15:54:13.131Z,84.16
2022-08-22T15:57:32.627Z,84.41
2022-08-22T16:00:45.123Z,84.47
2022-08-22T16:04:06.850Z,84.77
2022-08-22T16:07:26.293Z,85.02
2022-08-22T16:10:55.622Z,85.29
2022-08-22T16:14:22.395Z,85.30
2022-08-22T16:17:30.268Z,85.75
2022-08-22T16:20:31.977Z,85.97
2022-08-22T16:23:49.600Z,86.06
2022-08-22T16:26:52.396Z,86.36
2022-08-22T16:30:06.423Z,86.48
2022-08-22T16:33:08.843Z,86.59
2022-08-22T16:36:51.656Z,86.69
2022-08-22T16:40:01.144Z,86.66
2022-08-22T16:43:17.788Z,86.63
2022-08-22T16:46:37.987Z,86.73
2022-08-22T16:50:18.472Z,87.07
2022-08-22T16:53:29.360Z,87.32
2022-08-22T16:56:49.216Z,87.49
2022-08-22T17:00:41.213Z,87.79
2022-08-22T17:04:01.216Z,87.93
2022-08-22T17:07:14.300Z,88.29
2022-08-22T17:10:31.107Z,88.33
2022-08-22T17:13:41.952Z,88.56
2022-08-22T17:16:50.878Z,88.50
2022-08-22T17:20:28.985Z,88.70
2022-08-22T17:23:49.242Z,89.00
2022-08-22T17:27:13.295Z,89.34
2022-08-22T17:30:33.232Z,89.90
2022-08-22T17:33:41.108Z,90.10
2022-08-22T17:37:10.981Z,90.74
2022-08-22T17:40:46.870Z,90.99
2022-08-22T17:44:00.588Z,91.13
2022-08-22T17:47:11.329Z,91.83
2022-08-22T17:50:15.687Z,92.15
2022-08-22T17:53:33.422Z,93.04
2022-08-22T17:56:50.117Z,93.40
2022-08-22T18:00:11.633Z,93.41
2022-08-22T18:03:22.818Z,93.86
2022-08-22T18:06:29.926Z,93.82
2022-08-22T18:09:38.077Z,94.64
2022-08-22T18:12:48.130Z,94.88
2022-08-22T18:15:57.681Z,95.41
2022-08-22T18:19:06.161Z,95.78
2022-08-22T18:22:12.794Z,96.43
2022-08-22T18:25:17.367Z,96.73
2022-08-22T18:28:29.630Z,97.08
2022-08-22T18:31:51.778Z,97.79
2022-08-22T18:35:02.551Z,97.90
2022-08-22T18:38:20.229Z,97.63
2022-08-22T18:41:31.452Z,97.79
2022-08-22T18:44:34.783Z,98.21
2022-08-22T18:47:36.507Z,98.60
2022-08-22T18:51:18.575Z,98.88
2022-08-22T18:54:35.194Z,98.82
2022-08-22T18:58:05.442Z,99.40
2022-08-22T19:01:43.998Z,99.61
2022-08-22T19:05:10.780Z,99.64
2022-08-22T19:08:19.295Z,99.89
2022-08-22T19:11:46.547Z,99.74
2022-08-22T19:15:17.784Z,99.49
2022-08-22T19:18:19.413Z,99.37
2022-08-22T19:21:43.532Z,99.47
2022-08-22T19:25:18.310Z,99.92
2022-08-22T19:28:20.036Z,100.00
2022-08-22T19:31:41.889Z,100.00
2022-08-22T19:34:47.067Z,100.00
2022-08-22T19:37:54.443Z,100.00
2022-08-22T19:40:58.488Z,100.00
2022-08-22T19:44:01.174Z,100.00
2022-08-22T19:47:05.939Z,100.00
2022-08-22T19:50:17.113Z,100.00
2022-08-22T19:53:49.094Z,100.00
2022-08-22T19:56:53.659Z,100.00
2022-08-22T20:00:18.780Z,100.00
2022-08-22T20:03:42.313Z,100.00
2022-08-22T20:07:16.316Z,100.00
2022-08-22T20:10:27.035Z,100.00
2022-08-22T20:13:32.381Z,100.00
2022-08-22T20:17:14.052Z,100.00
2022-08-22T20:20:24.509Z,100.00
2022-08-22T20:23:37.659Z,100.00
2022-08-22T20:26:52.176Z,100.00
2022-08-22T20:30:23.536Z,100.00
2022-08-22T20:33:40.422Z,100.00
2022-08-22T20:36:44.749Z,100.00
2022-08-22T20:40:56.648Z,100.00
2022-08-22T20:43:57.940Z,100.00
2022-08-22T20:47:06.016Z,100.00
2022-08-22T20:50:12.082Z,100.00
2022-08-22T20:53:19.993Z,100.00
2022-08-22T20:56:53.198Z,100.00
2022-08-22T20:59:58.778Z,100.00
2022-08-22T21:03:28.236Z,100.00
2022-08-22T21:06:37.682Z,100.00
2022-08-22T21:09:58.108Z,100.00
2022-08-22T21:13:20.105Z,100.00
2022-08-22T21:16:31.247Z,100.00
2022-08-22T21:19:34.574Z,100.00
2022-08-22T21:22:36.352Z,100.00
2022-08-22T21:25:54.364Z,100.00
2022-08-22T21:29:10.468Z,100.00
2022-08-22T21:32:33.635Z,100.00
2022-08-22T21:35:35.444Z,100.00
2022-08-22T21:38:39.992Z,100.00
2022-08-22T21:41:47.872Z,100.00
2022-08-22T21:45:02.733Z,100.00
2022-08-22T21:48:30.308Z,100.00
2022-08-22T21:51:43.916Z,100.00
2022-08-22T21:54:45.836Z,100.00
2022-08-22T21:57:48.130Z,100.00
2022-08-22T22:01:01.064Z,100.00
2022-08-22T22:04:03.583Z,100.00
2022-08-22T22:07:05.387Z,100.00
2022-08-22T22:10:10.395Z,100.00
2022-08-22T22:13:12.413Z,100.00
2022-08-22T22:16:19.774Z,100.00
2022-08-22T22:19:21.586Z,100.00
2022-08-22T22:22:24.276Z,100.00
2022-08-22T22:25:39.541Z,100.00
2022-08-22T22:28:49.268Z,100.00
2022-08-22T22:31:51.325Z,100.00
2022-08-22T22:34:53.301Z,100.00
2022-08-22T22:37:56.029Z,100.00
2022-08-22T22:40:57.852Z,100.00
2022-08-22T22:44:01.219Z,100.00
2022-08-22T22:47:03.805Z,100.00
2022-08-22T22:50:07.454Z,100.00
2022-08-22T22:53:09.665Z,100.00
2022-08-22T22:56:21.659Z,100.00
2022-08-22T22:59:24.785Z,100.00
2022-08-22T23:02:27.414Z,100.00
2022-08-22T23:05:30.826Z,100.00
2022-08-22T23:08:32.690Z,100.00
2022-08-22T23:11:35.848Z,100.00
2022-08-22T23:14:37.561Z,100.00
2022-08-22T23:17:41.135Z,100.00
2022-08-22T23:20:42.914Z,100.00
2022-08-22T23:23:45.936Z,100.00
2022-08-22T23:26:47.900Z,100.00
2022-08-22T23:29:50.560Z,100.00
2022-08-22T23:32:52.557Z,100.00
2022-08-22T23:35:59.394Z,100.00
2022-08-22T23:39:02.136Z,100.00
2022-08-22T23:42:05.182Z,100.00
2022-08-22T23:45:07.218Z,100.00
2022-08-22T23:48:09.002Z,100.00
2022-08-22T23:51:12.622Z,100.00
2022-08-22T23:54:15.984Z,100.00
2022-08-22T23:57:18.083Z,100.00
